createdAt,value
2023-08-15T01:48:55.505Z,22.34
2023-08-15T01:49:56.504Z,22.37
2023-08-15T01:50:56.598Z,22.41
2023-08-15T01:51:56.687Z,22.46
2023-08-15T01:52:56.783Z,22.53
2023-08-15T01:53:56.854Z,22.59
2023-08-15T01:54:56.957Z,22.65
2023-08-15T01:55:57.006Z,22.71
2023-08-15T01:56:57.121Z,22.77
2023-08-15T01:57:57.206Z,22.82
2023-08-15T01:58:57.272Z,22.86
2023-08-15T01:59:57.364Z,22.89
2023-08-15T02:00:57.494Z,22.93
2023-08-15T02:01:57.535Z,22.94
2023-08-15T02:02:57.629Z,22.96
2023-08-15T02:03:57.679Z,22.97
2023-08-15T02:04:57.760Z,22.99
2023-08-15T02:05:57.904Z,23.02
2023-08-15T02:06:57.917Z,23.04
2023-08-15T02:07:57.998Z,23.04
2023-08-15T02:08:58.068Z,23.07
2023-08-15T02:09:58.152Z,23.07
2023-08-15T02:10:58.288Z,23.08
2023-08-15T02:11:58.293Z,23.09
2023-08-15T02:12:58.400Z,23.11
2023-08-15T02:13:58.444Z,23.12
2023-08-15T02:14:58.556Z,23.14
2023-08-15T02:15:58.718Z,23.14
2023-08-15T02:16:58.713Z,23.15
2023-08-15T02:17:58.844Z,23.19
2023-08-15T02:18:58.881Z,23.19
2023-08-15T02:19:58.936Z,23.20
2023-08-15T02:20:59.046Z,23.22
2023-08-15T02:21:59.136Z,23.20
2023-08-15T02:22:59.259Z,23.24
2023-08-15T02:23:59.322Z,23.24
2023-08-15T02:24:59.409Z,23.27
2023-08-15T02:25:59.479Z,23.27
2023-08-15T02:26:59.569Z,23.31
2023-08-15T02:27:59.673Z,23.32
2023-08-15T02:28:59.734Z,23.32
2023-08-15T02:29:59.809Z,23.34
2023-08-15T02:31:00.097Z,23.35
2023-08-15T02:31:59.932Z,23.35
2023-08-15T02:33:00.070Z,23.32
2023-08-15T02:34:00.093Z,23.32
2023-08-15T02:35:00.185Z,23.32
2023-08-15T02:36:00.229Z,23.31
2023-08-15T02:37:00.320Z,23.31
2023-08-15T02:38:00.390Z,23.29
2023-08-15T02:39:00.463Z,23.27
2023-08-15T02:40:00.524Z,23.26
2023-08-15T02:41:00.632Z,23.26
2023-08-15T02:42:00.697Z,23.24
2023-08-15T02:43:00.826Z,23.26
2023-08-15T02:44:00.842Z,23.24
2023-08-15T02:45:00.908Z,23.24
2023-08-15T02:46:00.958Z,23.23
2023-08-15T02:47:01.096Z,23.22
2023-08-15T02:48:01.232Z,23.20
2023-08-15T02:49:01.212Z,23.19
2023-08-15T02:50:01.293Z,23.19
2023-08-15T02:51:03.822Z,23.19
2023-08-15T02:52:01.461Z,23.20
2023-08-15T02:53:01.526Z,23.20
2023-08-15T02:54:01.624Z,23.20
2023-08-15T02:55:01.706Z,23.19
2023-08-15T02:56:01.750Z,23.15
2023-08-15T02:57:01.859Z,23.14
2023-08-15T02:58:01.958Z,23.11
2023-08-15T02:59:02.033Z,23.09
2023-08-15T03:00:02.102Z,23.07
2023-08-15T03:01:02.267Z,23.05
2023-08-15T03:02:02.383Z,23.04
2023-08-15T03:03:02.438Z,23.01
2023-08-15T03:04:02.466Z,23.01
2023-08-15T03:05:02.593Z,23.01
2023-08-15T03:06:02.657Z,22.97
2023-08-15T03:07:02.730Z,22.99
2023-08-15T03:08:02.817Z,22.97
2023-08-15T03:09:02.894Z,22.96
2023-08-15T03:10:02.957Z,22.94
2023-08-15T03:11:03.050Z,22.94
2023-08-15T03:12:03.116Z,22.93
2023-08-15T03:13:03.209Z,22.93
2023-08-15T03:14:03.310Z,22.92
2023-08-15T03:15:03.339Z,22.92
2023-08-15T03:16:03.424Z,22.90
2023-08-15T03:17:03.502Z,22.90
2023-08-15T03:18:03.659Z,22.90
2023-08-15T03:19:03.638Z,22.89
2023-08-15T03:20:03.717Z,22.87
2023-08-15T03:21:03.816Z,22.86
2023-08-15T03:22:03.911Z,22.84
2023-08-15T03:23:04.003Z,22.84
2023-08-15T03:24:04.041Z,22.84
2023-08-15T03:25:04.138Z,22.84
2023-08-15T03:26:04.243Z,22.83
2023-08-15T03:27:04.514Z,22.83
2023-08-15T03:28:04.453Z,22.82
2023-08-15T03:29:04.465Z,22.80
2023-08-15T03:30:04.569Z,22.77
2023-08-15T03:31:04.722Z,22.75
2023-08-15T03:32:04.721Z,22.74
2023-08-15T03:33:04.796Z,22.72
2023-08-15T03:34:04.844Z,22.71
2023-08-15T03:35:04.928Z,22.69
2023-08-15T03:36:05.006Z,22.69
2023-08-15T03:37:05.112Z,22.68
2023-08-15T03:38:05.258Z,22.69
2023-08-15T03:39:05.243Z,22.67
2023-08-15T03:40:05.336Z,22.67
2023-08-15T03:41:05.427Z,22.65
2023-08-15T03:42:05.465Z,22.62
2023-08-15T03:43:08.334Z,22.60
2023-08-15T03:44:05.650Z,22.59
2023-08-15T03:45:05.776Z,22.57
2023-08-15T03:46:05.955Z,22.56
2023-08-15T03:47:05.950Z,22.54
2023-08-15T03:48:06.093Z,22.53
2023-08-15T03:49:06.089Z,22.53
2023-08-15T03:50:06.144Z,22.52
2023-08-15T03:51:06.265Z,22.52
2023-08-15T03:52:06.316Z,22.50
2023-08-15T03:53:07.233Z,22.50
2023-08-15T03:54:06.472Z,22.49
2023-08-15T03:55:06.587Z,22.44
2023-08-15T03:56:06.669Z,22.44
2023-08-15T03:57:06.745Z,22.41
2023-08-15T03:58:06.852Z,22.39
2023-08-15T03:59:06.926Z,22.37
2023-08-15T04:00:06.994Z,22.35
2023-08-15T04:01:07.068Z,22.35
2023-08-15T04:02:07.224Z,22.34
2023-08-15T04:03:07.285Z,22.31
2023-08-15T04:04:07.379Z,22.29
2023-08-15T04:05:07.385Z,22.29
2023-08-15T04:06:07.449Z,22.27
2023-08-15T04:07:07.563Z,22.27
2023-08-15T04:08:07.639Z,22.27
2023-08-15T04:09:07.719Z,22.28
2023-08-15T04:10:07.801Z,22.28
2023-08-15T04:11:07.905Z,22.29
2023-08-15T04:12:07.975Z,22.29
2023-08-15T04:13:08.081Z,22.29
2023-08-15T04:14:08.247Z,22.31
2023-08-15T04:15:08.243Z,22.29
2023-08-15T04:16:08.326Z,22.31
2023-08-15T04:17:08.411Z,22.31
2023-08-15T04:18:08.535Z,22.32
2023-08-15T04:19:08.604Z,22.32
2023-08-15T04:20:08.701Z,22.34
2023-08-15T04:21:08.759Z,22.34
2023-08-15T04:22:08.832Z,22.35
2023-08-15T04:23:08.937Z,22.35
2023-08-15T04:24:08.966Z,22.37
2023-08-15T04:25:09.087Z,22.35
2023-08-15T04:26:09.149Z,22.37
2023-08-15T04:27:09.202Z,22.37
2023-08-15T04:28:09.316Z,22.37
2023-08-15T04:29:09.375Z,22.39
2023-08-15T04:30:09.511Z,22.38
2023-08-15T04:31:09.529Z,22.39
2023-08-15T04:32:09.620Z,22.39
2023-08-15T04:33:09.735Z,22.41
2023-08-15T04:34:09.754Z,22.43
2023-08-15T04:35:09.859Z,22.44
2023-08-15T04:36:09.932Z,22.44
2023-08-15T04:37:10.028Z,22.44
2023-08-15T04:38:10.118Z,22.46
2023-08-15T04:39:10.204Z,22.44
2023-08-15T04:40:10.324Z,22.44
2023-08-15T04:41:10.338Z,22.43
2023-08-15T04:42:10.455Z,22.43
2023-08-15T04:43:10.558Z,22.43
2023-08-15T04:44:10.611Z,22.39
2023-08-15T04:45:10.672Z,22.38
2023-08-15T04:46:10.800Z,22.38
2023-08-15T04:47:10.885Z,22.37
2023-08-15T04:48:11.048Z,22.35
2023-08-15T04:49:11.021Z,22.35
2023-08-15T04:50:11.098Z,22.35
2023-08-15T04:51:11.167Z,22.35
2023-08-15T04:52:11.232Z,22.35
2023-08-15T04:53:11.326Z,22.34
2023-08-15T04:54:11.405Z,22.32
2023-08-15T04:55:11.482Z,22.31
2023-08-15T04:56:11.564Z,22.29
2023-08-15T04:57:11.656Z,22.27
2023-08-15T04:58:11.769Z,22.25
2023-08-15T04:59:11.786Z,22.23
2023-08-15T05:00:11.888Z,22.22
2023-08-15T05:01:11.988Z,22.22
2023-08-15T05:02:12.051Z,22.20
2023-08-15T05:03:12.166Z,22.19
2023-08-15T05:04:12.221Z,22.17
2023-08-15T05:05:12.342Z,22.16
2023-08-15T05:06:12.410Z,22.13
2023-08-15T05:07:12.476Z,22.13
2023-08-15T05:08:12.583Z,22.12
2023-08-15T05:09:12.590Z,22.12
2023-08-15T05:10:12.712Z,22.12
2023-08-15T05:11:12.816Z,22.13
2023-08-15T05:12:12.875Z,22.13
2023-08-15T05:13:12.974Z,22.12
2023-08-15T05:14:13.016Z,22.13
2023-08-15T05:15:13.092Z,22.13
2023-08-15T05:16:13.196Z,22.13
2023-08-15T05:17:13.254Z,22.10
2023-08-15T05:18:13.425Z,22.12
2023-08-15T05:19:13.380Z,22.12
2023-08-15T05:20:13.640Z,22.10
2023-08-15T05:21:13.514Z,22.09
2023-08-15T05:22:13.620Z,22.09
2023-08-15T05:23:13.680Z,22.06
2023-08-15T05:24:13.776Z,22.04
2023-08-15T05:25:13.866Z,22.01
2023-08-15T05:26:13.936Z,22.01
2023-08-15T05:27:14.031Z,21.98
2023-08-15T05:28:14.119Z,21.98
2023-08-15T05:29:14.191Z,21.98
2023-08-15T05:30:14.289Z,21.97
2023-08-15T05:31:14.414Z,21.98
2023-08-15T05:32:14.459Z,21.95
2023-08-15T05:33:14.539Z,21.97
2023-08-15T05:34:14.587Z,21.99
2023-08-15T05:35:14.702Z,22.01
2023-08-15T05:36:14.778Z,22.01
2023-08-15T05:37:14.851Z,22.02
2023-08-15T05:38:14.963Z,22.06
2023-08-15T05:39:15.030Z,22.07
2023-08-15T05:40:15.090Z,22.06
2023-08-15T05:41:15.147Z,22.07
2023-08-15T05:42:15.262Z,22.09
2023-08-15T05:43:15.347Z,22.07
2023-08-15T05:44:15.418Z,22.07
2023-08-15T05:45:15.499Z,22.09
2023-08-15T05:46:15.571Z,22.07
2023-08-15T05:47:15.649Z,22.09
2023-08-15T05:48:15.858Z,22.07
2023-08-15T05:49:15.807Z,22.07
2023-08-15T05:50:15.931Z,22.09
2023-08-15T05:51:16.007Z,22.10
2023-08-15T05:52:16.077Z,22.12
2023-08-15T05:53:16.179Z,22.13
2023-08-15T05:54:16.240Z,22.13
2023-08-15T05:55:16.312Z,22.14
2023-08-15T05:56:16.419Z,22.16
2023-08-15T05:57:16.522Z,22.17
2023-08-15T05:58:16.614Z,22.17
2023-08-15T05:59:16.675Z,22.17
2023-08-15T06:00:16.744Z,22.19
2023-08-15T06:01:16.899Z,22.19
2023-08-15T06:02:16.928Z,22.20
2023-08-15T06:03:22.387Z,22.20
2023-08-15T06:04:17.122Z,22.20
2023-08-15T06:05:17.180Z,22.20
2023-08-15T06:06:17.240Z,22.20
2023-08-15T06:07:17.323Z,22.20
2023-08-15T06:08:17.575Z,22.22
2023-08-15T06:09:18.765Z,22.22
2023-08-15T06:10:17.621Z,22.25
2023-08-15T06:11:17.691Z,22.25
2023-08-15T06:12:17.766Z,22.25
2023-08-15T06:13:17.883Z,22.27
2023-08-15T06:14:17.895Z,22.27
2023-08-15T06:15:18.033Z,22.27
2023-08-15T06:16:18.102Z,22.28
2023-08-15T06:17:18.159Z,22.28
2023-08-15T06:18:18.272Z,22.28
2023-08-15T06:19:18.283Z,22.28
2023-08-15T06:20:18.396Z,22.29
2023-08-15T06:21:18.461Z,22.31
2023-08-15T06:22:18.543Z,22.29
2023-08-15T06:23:18.663Z,22.31
2023-08-15T06:24:21.367Z,22.31
2023-08-15T06:25:18.743Z,22.31
2023-08-15T06:26:18.842Z,22.32
2023-08-15T06:27:19.253Z,22.34
2023-08-15T06:28:19.487Z,22.32
2023-08-15T06:29:19.044Z,22.34
2023-08-15T06:30:19.161Z,22.34
2023-08-15T06:31:19.263Z,22.35
2023-08-15T06:32:19.319Z,22.34
2023-08-15T06:33:19.420Z,22.37
2023-08-15T06:34:19.507Z,22.37
2023-08-15T06:35:19.567Z,22.38
2023-08-15T06:36:19.681Z,22.39
2023-08-15T06:37:20.041Z,22.41
2023-08-15T06:38:19.926Z,22.43
2023-08-15T06:39:19.920Z,22.43
2023-08-15T06:40:19.976Z,22.44
2023-08-15T06:41:20.093Z,22.44
2023-08-15T06:42:20.175Z,22.46
2023-08-15T06:43:20.306Z,22.46
2023-08-15T06:44:20.344Z,22.46
2023-08-15T06:45:20.412Z,22.47
2023-08-15T06:46:20.575Z,22.47
2023-08-15T06:47:20.804Z,22.47
2023-08-15T06:48:20.756Z,22.49
2023-08-15T06:49:20.781Z,22.49
2023-08-15T06:50:20.906Z,22.49
2023-08-15T06:51:20.969Z,22.50
2023-08-15T06:52:21.088Z,22.52
2023-08-15T06:53:21.178Z,22.53
2023-08-15T06:54:21.265Z,22.53
2023-08-15T06:55:21.320Z,22.53
2023-08-15T06:56:21.418Z,22.56
2023-08-15T06:57:21.601Z,22.57
2023-08-15T06:58:21.569Z,22.59
2023-08-15T06:59:21.705Z,22.60
2023-08-15T07:00:21.727Z,22.62
2023-08-15T07:01:21.856Z,22.64
2023-08-15T07:02:21.873Z,22.62
2023-08-15T07:03:22.070Z,22.65
2023-08-15T07:04:22.049Z,22.65
2023-08-15T07:05:22.105Z,22.67
2023-08-15T07:06:22.198Z,22.67
2023-08-15T07:07:22.498Z,22.68
2023-08-15T07:08:22.382Z,22.68
2023-08-15T07:09:22.452Z,22.68
2023-08-15T07:10:22.568Z,22.68
2023-08-15T07:11:22.630Z,22.69
2023-08-15T07:12:22.991Z,22.71
2023-08-15T07:13:22.823Z,22.71
2023-08-15T07:14:22.890Z,22.75
2023-08-15T07:15:22.925Z,22.75
2023-08-15T07:16:23.084Z,22.77
2023-08-15T07:17:23.137Z,22.78
2023-08-15T07:18:23.202Z,22.80
2023-08-15T07:19:23.228Z,22.80
2023-08-15T07:20:23.330Z,22.80
2023-08-15T07:21:25.639Z,22.84
2023-08-15T07:22:23.988Z,22.84
2023-08-15T07:23:23.586Z,22.86
2023-08-15T07:24:23.648Z,22.87
2023-08-15T07:25:23.727Z,22.90
2023-08-15T07:26:23.820Z,22.90
2023-08-15T07:27:23.925Z,22.93
2023-08-15T07:28:23.986Z,22.94
2023-08-15T07:29:24.044Z,22.96
2023-08-15T07:30:24.177Z,22.99
2023-08-15T07:31:24.248Z,22.99
2023-08-15T07:32:24.737Z,23.02
2023-08-15T07:33:24.409Z,23.04
2023-08-15T07:34:24.483Z,23.05
2023-08-15T07:35:24.566Z,23.05
2023-08-15T07:36:24.648Z,23.08
2023-08-15T07:37:24.707Z,23.09
2023-08-15T07:38:24.870Z,23.12
2023-08-15T07:39:24.909Z,23.14
2023-08-15T07:40:24.985Z,23.14
2023-08-15T07:41:25.047Z,23.15
2023-08-15T07:42:25.173Z,23.17
2023-08-15T07:43:25.240Z,23.17
2023-08-15T07:44:25.308Z,23.20
2023-08-15T07:45:25.378Z,23.23
2023-08-15T07:46:25.679Z,23.24
2023-08-15T07:47:25.593Z,23.26
2023-08-15T07:48:25.657Z,23.31
2023-08-15T07:49:25.705Z,23.31
2023-08-15T07:50:25.794Z,23.32
2023-08-15T07:51:25.856Z,23.35
2023-08-15T07:52:26.279Z,23.38
2023-08-15T07:53:26.064Z,23.40
2023-08-15T07:54:26.099Z,23.42
2023-08-15T07:55:26.343Z,23.43
2023-08-15T07:56:26.260Z,23.45
2023-08-15T07:57:26.388Z,23.47
2023-08-15T07:58:26.488Z,23.49
2023-08-15T07:59:26.504Z,23.50
2023-08-15T08:00:26.686Z,23.50
2023-08-15T08:01:26.644Z,23.53
2023-08-15T08:02:26.747Z,23.57
2023-08-15T08:03:26.795Z,23.58
2023-08-15T08:04:26.872Z,23.61
2023-08-15T08:05:26.998Z,23.62
2023-08-15T08:06:39.813Z,23.62
2023-08-15T08:07:27.152Z,23.64
2023-08-15T08:08:27.243Z,23.65
2023-08-15T08:09:27.293Z,23.65
2023-08-15T08:10:27.452Z,23.67
2023-08-15T08:11:27.446Z,23.68
2023-08-15T08:12:27.583Z,23.70
2023-08-15T08:13:27.584Z,23.70
2023-08-15T08:14:27.670Z,23.71
2023-08-15T08:15:27.732Z,23.71
2023-08-15T08:16:27.899Z,23.72
2023-08-15T08:17:28.048Z,23.72
2023-08-15T08:18:28.048Z,23.71
2023-08-15T08:19:28.078Z,23.75
2023-08-15T08:20:28.189Z,23.76
2023-08-15T08:21:28.265Z,23.77
2023-08-15T08:22:28.351Z,23.80
2023-08-15T08:23:28.545Z,23.80
2023-08-15T08:24:28.533Z,23.83
2023-08-15T08:25:28.604Z,23.85
2023-08-15T08:26:28.715Z,23.87
2023-08-15T08:27:28.775Z,23.89
2023-08-15T08:28:28.910Z,23.94
2023-08-15T08:29:28.962Z,23.95
2023-08-15T08:30:30.788Z,23.95
2023-08-15T08:31:29.185Z,23.98
2023-08-15T08:32:29.314Z,24.01
2023-08-15T08:33:29.355Z,24.01
2023-08-15T08:34:29.409Z,24.04
2023-08-15T08:35:29.498Z,24.07
2023-08-15T08:36:29.579Z,24.10
2023-08-15T08:37:29.658Z,24.10
2023-08-15T08:38:29.779Z,24.13
2023-08-15T08:39:32.624Z,24.13
2023-08-15T08:40:29.918Z,24.14
2023-08-15T08:41:29.977Z,24.16
2023-08-15T08:42:30.089Z,24.17
2023-08-15T08:43:30.176Z,24.19
2023-08-15T08:44:30.260Z,24.20
2023-08-15T08:45:30.292Z,24.23
2023-08-15T08:46:30.353Z,24.23
2023-08-15T08:47:30.469Z,24.23
2023-08-15T08:48:30.603Z,24.24
2023-08-15T08:49:30.641Z,24.24
2023-08-15T08:50:30.748Z,24.26
2023-08-15T08:51:30.808Z,24.26
2023-08-15T08:52:30.929Z,24.29
2023-08-15T08:53:31.019Z,24.31
2023-08-15T08:54:54.031Z,24.32
2023-08-15T08:55:32.816Z,24.34
2023-08-15T08:56:31.250Z,24.34
2023-08-15T08:57:31.320Z,24.35
2023-08-15T08:58:31.442Z,24.37
2023-08-15T08:59:31.517Z,24.39
2023-08-15T09:00:31.584Z,24.41
2023-08-15T09:01:31.700Z,24.44
2023-08-15T09:02:31.927Z,24.47
2023-08-15T09:03:32.030Z,24.52
2023-08-15T09:04:31.925Z,24.54
2023-08-15T09:05:32.250Z,24.57
2023-08-15T09:06:32.106Z,24.61
2023-08-15T09:07:32.163Z,24.63
2023-08-15T09:08:32.255Z,24.68
2023-08-15T09:09:32.326Z,24.69
2023-08-15T09:10:32.386Z,24.71
2023-08-15T09:11:32.455Z,24.76
2023-08-15T09:12:32.532Z,24.76
2023-08-15T09:13:32.694Z,24.79
2023-08-15T09:14:32.697Z,24.82
2023-08-15T09:15:35.105Z,24.83
2023-08-15T09:16:32.856Z,24.83
2023-08-15T09:17:32.968Z,24.87
2023-08-15T09:18:33.034Z,24.87
2023-08-15T09:19:33.129Z,24.88
2023-08-15T09:20:33.194Z,24.90
2023-08-15T09:21:33.308Z,24.91
2023-08-15T09:22:33.388Z,24.92
2023-08-15T09:23:33.554Z,24.94
2023-08-15T09:24:33.518Z,24.95
2023-08-15T09:25:33.599Z,24.95
2023-08-15T09:26:33.679Z,24.95
2023-08-15T09:27:33.750Z,24.97
2023-08-15T09:28:33.854Z,24.95
2023-08-15T09:29:33.917Z,24.97
2023-08-15T09:30:33.998Z,24.97
2023-08-15T09:31:34.097Z,24.98
2023-08-15T09:32:34.175Z,24.98
2023-08-15T09:33:34.267Z,25.01
2023-08-15T09:34:36.079Z,25.02
2023-08-15T09:35:37.431Z,25.05
2023-08-15T09:36:35.454Z,25.06
2023-08-15T09:37:34.561Z,25.07
2023-08-15T09:38:34.666Z,25.09
2023-08-15T09:39:34.745Z,25.12
2023-08-15T09:40:34.824Z,25.12
2023-08-15T09:41:34.897Z,25.13
2023-08-15T09:42:34.980Z,25.15
2023-08-15T09:43:35.102Z,25.15
2023-08-15T09:44:35.112Z,25.17
2023-08-15T09:45:35.218Z,25.17
2023-08-15T09:46:35.411Z,25.19
2023-08-15T09:47:35.968Z,25.19
2023-08-15T09:48:35.509Z,25.19
2023-08-15T09:49:35.529Z,25.17
2023-08-15T09:50:35.722Z,25.19
2023-08-15T09:51:35.734Z,25.16
2023-08-15T09:52:35.800Z,25.17
2023-08-15T09:53:35.926Z,25.19
2023-08-15T09:54:35.999Z,25.16
2023-08-15T09:55:36.104Z,25.19
2023-08-15T09:56:36.146Z,25.19
2023-08-15T09:57:36.255Z,25.24
2023-08-15T09:58:36.340Z,25.25
2023-08-15T09:59:36.385Z,25.28
2023-08-15T10:00:36.466Z,25.32
2023-08-15T10:01:36.530Z,25.35
2023-08-15T10:02:36.619Z,25.39
2023-08-15T10:03:36.731Z,25.42
2023-08-15T10:04:36.733Z,25.44
2023-08-15T10:05:36.815Z,25.49
2023-08-15T10:06:36.892Z,25.53
2023-08-15T10:07:36.964Z,25.56
2023-08-15T10:08:37.056Z,25.59
2023-08-15T10:09:37.128Z,25.62
2023-08-15T10:10:37.263Z,25.65
2023-08-15T10:11:37.273Z,25.68
2023-08-15T10:12:37.367Z,25.71
2023-08-15T10:13:37.496Z,25.72
2023-08-15T10:14:37.506Z,25.77
2023-08-15T10:15:37.607Z,25.80
2023-08-15T10:16:37.840Z,25.83
2023-08-15T10:17:37.877Z,25.83
2023-08-15T10:18:37.941Z,25.86
2023-08-15T10:19:38.092Z,25.87
2023-08-15T10:20:38.034Z,25.90
2023-08-15T10:21:38.129Z,25.91
2023-08-15T10:22:38.147Z,25.91
2023-08-15T10:23:38.234Z,25.94
2023-08-15T10:24:38.283Z,25.97
2023-08-15T10:25:38.378Z,25.97
2023-08-15T10:26:38.473Z,25.99
2023-08-15T10:27:38.645Z,26.01
2023-08-15T10:28:38.657Z,26.02
2023-08-15T10:29:38.716Z,26.01
2023-08-15T10:30:38.812Z,25.98
2023-08-15T10:31:38.907Z,25.94
2023-08-15T10:32:39.027Z,25.90
2023-08-15T10:33:39.086Z,25.83
2023-08-15T10:34:39.118Z,25.80
2023-08-15T10:35:39.202Z,25.79
2023-08-15T10:36:39.279Z,25.82
2023-08-15T10:37:39.333Z,25.83
2023-08-15T10:38:39.431Z,25.86
2023-08-15T10:39:39.503Z,25.87
2023-08-15T10:40:39.577Z,25.89
2023-08-15T10:41:39.705Z,25.91
2023-08-15T10:42:39.766Z,25.94
2023-08-15T10:43:39.886Z,25.98
2023-08-15T10:44:39.946Z,25.99
2023-08-15T10:45:40.041Z,26.02
2023-08-15T10:46:40.126Z,26.04
2023-08-15T10:47:40.279Z,26.06
2023-08-15T10:48:44.166Z,26.09
2023-08-15T10:49:40.359Z,26.15
2023-08-15T10:50:40.466Z,26.15
2023-08-15T10:51:40.577Z,26.18
2023-08-15T10:52:40.680Z,26.20
2023-08-15T10:53:40.709Z,26.21
2023-08-15T10:54:40.766Z,26.21
2023-08-15T10:55:40.849Z,26.24
2023-08-15T10:56:40.975Z,26.25
2023-08-15T10:57:41.062Z,26.28
2023-08-15T10:58:42.924Z,26.29
2023-08-15T10:59:41.289Z,26.32
2023-08-15T11:00:41.289Z,26.37
2023-08-15T11:01:41.411Z,26.42
2023-08-15T11:02:41.496Z,26.46
2023-08-15T11:03:41.603Z,26.52
2023-08-15T11:04:42.969Z,26.57
2023-08-15T11:05:41.758Z,26.62
2023-08-15T11:06:41.797Z,26.62
2023-08-15T11:07:41.891Z,26.62
2023-08-15T11:08:42.013Z,26.65
2023-08-15T11:09:42.136Z,26.67
2023-08-15T11:10:55.838Z,26.68
2023-08-15T11:11:42.239Z,26.67
2023-08-15T11:12:42.296Z,26.65
2023-08-15T11:13:42.380Z,26.65
2023-08-15T11:14:42.462Z,26.67
2023-08-15T11:15:42.530Z,26.72
2023-08-15T11:16:42.667Z,26.74
2023-08-15T11:17:42.725Z,26.79
2023-08-15T11:18:42.834Z,26.80
2023-08-15T11:19:42.902Z,26.81
2023-08-15T11:20:42.972Z,26.83
2023-08-15T11:21:43.022Z,26.84
2023-08-15T11:22:43.138Z,26.87
2023-08-15T11:23:43.242Z,26.87
2023-08-15T11:24:43.272Z,26.87
2023-08-15T11:25:43.331Z,26.89
2023-08-15T11:26:43.408Z,26.89
2023-08-15T11:27:43.486Z,26.89
2023-08-15T11:28:43.603Z,26.92
2023-08-15T11:29:43.613Z,26.94
2023-08-15T11:30:43.761Z,26.96
2023-08-15T11:31:43.842Z,26.99
2023-08-15T11:32:43.853Z,27.02
2023-08-15T11:33:44.049Z,27.04
2023-08-15T11:34:44.081Z,27.06
2023-08-15T11:35:44.101Z,27.11
2023-08-15T11:36:44.208Z,27.13
2023-08-15T11:37:44.315Z,27.17
2023-08-15T11:38:44.406Z,27.19
2023-08-15T11:39:44.474Z,27.19
2023-08-15T11:40:44.530Z,27.21
2023-08-15T11:41:45.469Z,27.26
2023-08-15T11:42:44.719Z,27.29
2023-08-15T11:43:44.787Z,27.32
2023-08-15T11:44:44.871Z,27.33
2023-08-15T11:45:44.961Z,27.38
2023-08-15T11:46:54.100Z,27.38
2023-08-15T11:47:45.141Z,27.41
2023-08-15T11:48:45.296Z,27.41
2023-08-15T11:49:46.828Z,27.43
2023-08-15T11:50:45.355Z,27.43
2023-08-15T11:51:45.424Z,27.43
2023-08-15T11:52:45.493Z,27.47
2023-08-15T11:53:45.573Z,27.48
2023-08-15T11:54:45.663Z,27.47
2023-08-15T11:55:45.742Z,27.46
2023-08-15T11:56:45.807Z,27.47
2023-08-15T11:57:45.926Z,27.48
2023-08-15T11:58:47.355Z,27.48
2023-08-15T11:59:46.033Z,27.48
2023-08-15T12:00:46.148Z,27.47
2023-08-15T12:01:46.256Z,27.48
2023-08-15T12:02:46.321Z,27.47
2023-08-15T12:03:46.448Z,27.48
2023-08-15T12:04:46.520Z,27.47
2023-08-15T12:05:46.580Z,27.46
2023-08-15T12:06:46.775Z,27.42
2023-08-15T12:07:46.741Z,27.46
2023-08-15T12:08:47.513Z,27.41
2023-08-15T12:09:46.867Z,27.41
2023-08-15T12:10:46.994Z,27.39
2023-08-15T12:11:47.057Z,27.39
2023-08-15T12:12:47.166Z,27.38
2023-08-15T12:13:47.238Z,27.36
2023-08-15T12:14:51.403Z,27.35
2023-08-15T12:15:47.374Z,27.36
2023-08-15T12:16:47.428Z,27.35
2023-08-15T12:17:47.521Z,27.36
2023-08-15T12:18:47.636Z,27.36
2023-08-15T12:19:47.666Z,27.36
2023-08-15T12:20:47.756Z,27.33
2023-08-15T12:21:47.780Z,27.32
2023-08-15T12:22:47.954Z,27.29
2023-08-15T12:23:48.028Z,27.28
2023-08-15T12:24:48.082Z,27.24
2023-08-15T12:25:48.131Z,27.24
2023-08-15T12:26:48.248Z,27.23
2023-08-15T12:27:48.332Z,27.21
2023-08-15T12:28:48.429Z,27.19
2023-08-15T12:30:12.055Z,27.19
2023-08-15T12:30:48.628Z,27.16
2023-08-15T12:31:48.729Z,27.14
2023-08-15T12:32:48.804Z,27.11
2023-08-15T12:33:48.907Z,27.11
2023-08-15T12:34:48.919Z,27.11
2023-08-15T12:35:50.675Z,27.14
2023-08-15T12:36:49.086Z,27.14
2023-08-15T12:37:49.202Z,27.13
2023-08-15T12:38:49.269Z,27.14
2023-08-15T12:39:49.281Z,27.16
2023-08-15T12:40:49.397Z,27.17
2023-08-15T12:41:49.441Z,27.19
2023-08-15T12:42:49.558Z,27.19
2023-08-15T12:43:49.657Z,27.20
2023-08-15T12:44:49.724Z,27.21
2023-08-15T12:45:49.845Z,27.23
2023-08-15T12:46:49.897Z,27.21
2023-08-15T12:47:49.969Z,27.21
2023-08-15T12:48:50.118Z,27.21
2023-08-15T12:49:50.120Z,27.23
2023-08-15T12:50:50.192Z,27.24
2023-08-15T12:51:50.270Z,27.23
2023-08-15T12:52:50.373Z,27.21
2023-08-15T12:53:50.409Z,27.24
2023-08-15T12:54:50.478Z,27.28
2023-08-15T12:55:50.594Z,27.29
2023-08-15T12:56:50.692Z,27.32
2023-08-15T12:57:50.729Z,27.35
2023-08-15T12:58:50.837Z,27.38
2023-08-15T12:59:50.873Z,27.39
2023-08-15T13:00:50.978Z,27.38
2023-08-15T13:01:51.031Z,27.38
2023-08-15T13:02:51.127Z,27.36
2023-08-15T13:03:51.177Z,27.35
2023-08-15T13:04:51.252Z,27.36
2023-08-15T13:05:51.287Z,27.38
2023-08-15T13:06:51.370Z,27.39
2023-08-15T13:07:51.473Z,27.41
2023-08-15T13:08:51.676Z,27.42
2023-08-15T13:09:51.615Z,27.46
2023-08-15T13:10:51.710Z,27.48
2023-08-15T13:11:51.782Z,27.51
2023-08-15T13:12:51.853Z,27.53
2023-08-15T13:13:51.972Z,27.50
2023-08-15T13:14:52.044Z,27.46
2023-08-15T13:15:52.162Z,27.46
2023-08-15T13:16:52.249Z,27.47
2023-08-15T13:17:52.341Z,27.48
2023-08-15T13:18:52.379Z,27.50
2023-08-15T13:19:52.565Z,27.54
2023-08-15T13:20:52.516Z,27.57
2023-08-15T13:21:52.576Z,27.58
2023-08-15T13:22:52.684Z,27.59
2023-08-15T13:23:52.827Z,27.61
2023-08-15T13:24:52.952Z,27.61
2023-08-15T13:25:52.967Z,27.61
2023-08-15T13:26:53.047Z,27.64
2023-08-15T13:27:53.160Z,27.66
2023-08-15T13:28:53.278Z,27.67
2023-08-15T13:29:53.301Z,27.69
2023-08-15T13:30:53.421Z,27.71
2023-08-15T13:31:53.447Z,27.73
2023-08-15T13:32:53.600Z,27.73
2023-08-15T13:33:53.629Z,27.73
2023-08-15T13:34:53.640Z,27.73
2023-08-15T13:35:53.739Z,27.73
2023-08-15T13:36:53.804Z,27.71
2023-08-15T13:37:53.904Z,27.69
2023-08-15T13:38:54.001Z,27.67
2023-08-15T13:39:54.065Z,27.66
2023-08-15T13:40:54.144Z,27.66
2023-08-15T13:41:54.220Z,27.67
2023-08-15T13:42:54.249Z,27.73
2023-08-15T13:43:54.408Z,27.77
2023-08-15T13:44:54.438Z,27.82
2023-08-15T13:45:54.533Z,27.88
2023-08-15T13:46:54.619Z,27.91
2023-08-15T13:47:54.819Z,27.95
2023-08-15T13:48:54.803Z,27.99
2023-08-15T13:52:10.744Z,27.99
2023-08-15T13:53:11.856Z,27.95
2023-08-15T13:54:11.926Z,27.94
2023-08-15T13:55:11.990Z,27.92
2023-08-15T13:56:12.087Z,27.92
2023-08-15T13:57:12.251Z,27.91
2023-08-15T13:58:12.216Z,27.91
2023-08-15T13:59:12.324Z,27.89
2023-08-15T14:00:12.362Z,27.88
2023-08-15T14:01:12.471Z,27.86
2023-08-15T14:02:12.594Z,27.88
2023-08-15T14:03:12.647Z,27.88
2023-08-15T14:04:12.703Z,27.86
2023-08-15T14:05:12.791Z,27.85
2023-08-15T14:06:12.844Z,27.85
2023-08-15T14:07:12.902Z,27.84
2023-08-15T14:08:13.189Z,27.82
2023-08-15T14:09:13.152Z,27.82
2023-08-15T14:10:13.180Z,27.80
2023-08-15T14:11:13.255Z,27.76
2023-08-15T14:12:13.322Z,27.73
2023-08-15T14:13:13.394Z,27.69
2023-08-15T14:14:13.526Z,27.67
2023-08-15T14:15:13.660Z,27.66
2023-08-15T14:16:13.722Z,27.62
2023-08-15T14:24:05.948Z,27.23
2023-08-15T14:25:07.026Z,27.24
2023-08-15T14:26:07.100Z,27.26
2023-08-15T14:27:07.217Z,27.28
2023-08-15T14:28:07.292Z,27.32
2023-08-15T14:29:07.322Z,27.35
2023-08-15T14:30:07.437Z,27.36
2023-08-15T14:31:07.602Z,27.41
2023-08-15T14:32:07.627Z,27.43
2023-08-15T14:33:08.540Z,27.50
2023-08-15T14:34:07.772Z,27.53
2023-08-15T14:35:07.904Z,27.57
2023-08-15T14:36:07.969Z,27.59
2023-08-15T14:51:59.928Z,27.24
2023-08-15T14:53:01.003Z,27.26
2023-08-15T14:54:01.008Z,27.28
2023-08-15T14:55:01.095Z,27.31
2023-08-15T14:56:01.112Z,27.35
2023-08-15T14:57:01.204Z,27.38
2023-08-15T14:58:01.276Z,27.42
2023-08-15T14:59:01.357Z,27.48
2023-08-15T15:00:01.433Z,27.51
2023-08-15T15:01:01.525Z,27.54
2023-08-15T15:02:01.692Z,27.59
2023-08-15T15:03:01.719Z,27.64
2023-08-15T15:04:01.814Z,27.66
2023-08-15T15:05:01.842Z,27.71
2023-08-15T15:06:01.906Z,27.74